sensor_id;sensor_type;location;lat;lon;timestamp;P1;durP1;ratioP1;P2;durP2;ratioP2
21507;SDS011;10915;54.352;9.074;2024-01-16T00:06:23;10.47;;;7.37;;
21507;SDS011;10915;54.352;9.074;2024-01-16T00:08:48;10.03;;;7.03;;
21507;SDS011;10915;54.352;9.074;2024-01-16T00:11:14;12.07;;;7.60;;
21507;SDS011;10915;54.352;9.074;2024-01-16T00:13:39;11.10;;;7.57;;
21507;SDS011;10915;54.352;9.074;2024-01-16T00:16:05;10.30;;;7.07;;
21507;SDS011;10915;54.352;9.074;2024-01-16T00:18:31;8.40;;;6.27;;
21507;SDS011;10915;54.352;9.074;2024-01-16T00:20:57;10.70;;;7.53;;
21507;SDS011;10915;54.352;9.074;2024-01-16T00:23:22;11.57;;;7.63;;
21507;SDS011;10915;54.352;9.074;2024-01-16T00:25:48;10.73;;;7.03;;
21507;SDS011;10915;54.352;9.074;2024-01-16T00:28:13;9.03;;;6.90;;
21507;SDS011;10915;54.352;9.074;2024-01-16T00:30:39;13.53;;;10.57;;
21507;SDS011;10915;54.352;9.074;2024-01-16T00:33:04;13.47;;;10.03;;
21507;SDS011;10915;54.352;9.074;2024-01-16T00:35:30;15.13;;;9.47;;
21507;SDS011;10915;54.352;9.074;2024-01-16T00:37:55;12.67;;;8.63;;
21507;SDS011;10915;54.352;9.074;2024-01-16T00:40:21;13.00;;;8.27;;
21507;SDS011;10915;54.352;9.074;2024-01-16T00:42:47;12.80;;;8.70;;
21507;SDS011;10915;54.352;9.074;2024-01-16T00:45:12;14.87;;;9.40;;
21507;SDS011;10915;54.352;9.074;2024-01-16T00:47:38;11.17;;;5.83;;
21507;SDS011;10915;54.352;9.074;2024-01-16T00:50:03;15.67;;;5.37;;
21507;SDS011;10915;54.352;9.074;2024-01-16T00:52:30;12.77;;;8.30;;
21507;SDS011;10915;54.352;9.074;2024-01-16T00:54:55;12.60;;;8.30;;
21507;SDS011;10915;54.352;9.074;2024-01-16T00:57:21;9.70;;;7.50;;
21507;SDS011;10915;54.352;9.074;2024-01-16T00:59:46;12.87;;;8.03;;
21507;SDS011;10915;54.352;9.074;2024-01-16T01:02:12;13.23;;;7.87;;
21507;SDS011;10915;54.352;9.074;2024-01-16T01:04:38;10.83;;;7.13;;
21507;SDS011;10915;54.352;9.074;2024-01-16T01:07:03;10.30;;;7.80;;
21507;SDS011;10915;54.352;9.074;2024-01-16T01:12:02;9.97;;;6.80;;
21507;SDS011;10915;54.352;9.074;2024-01-16T01:14:27;10.07;;;7.20;;
21507;SDS011;10915;54.352;9.074;2024-01-16T01:16:54;13.23;;;7.83;;
21507;SDS011;10915;54.352;9.074;2024-01-16T01:19:20;12.57;;;7.50;;
21507;SDS011;10915;54.352;9.074;2024-01-16T01:21:46;11.43;;;8.03;;
21507;SDS011;10915;54.352;9.074;2024-01-16T01:24:11;10.83;;;7.13;;
21507;SDS011;10915;54.352;9.074;2024-01-16T01:26:37;11.30;;;8.17;;
21507;SDS011;10915;54.352;9.074;2024-01-16T01:29:02;12.10;;;8.13;;
21507;SDS011;10915;54.352;9.074;2024-01-16T01:31:28;12.80;;;8.07;;
21507;SDS011;10915;54.352;9.074;2024-01-16T01:33:53;16.13;;;9.77;;
21507;SDS011;10915;54.352;9.074;2024-01-16T01:36:19;15.37;;;10.63;;
21507;SDS011;10915;54.352;9.074;2024-01-16T01:38:44;13.80;;;6.00;;
21507;SDS011;10915;54.352;9.074;2024-01-16T01:41:10;14.57;;;6.03;;
21507;SDS011;10915;54.352;9.074;2024-01-16T01:43:39;11.83;;;5.07;;
21507;SDS011;10915;54.352;9.074;2024-01-16T01:46:08;12.57;;;5.73;;
21507;SDS011;10915;54.352;9.074;2024-01-16T01:48:36;13.93;;;4.97;;
21507;SDS011;10915;54.352;9.074;2024-01-16T01:51:03;8.83;;;5.03;;
21507;SDS011;10915;54.352;9.074;2024-01-16T01:53:29;11.37;;;5.17;;
21507;SDS011;10915;54.352;9.074;2024-01-16T01:55:57;12.03;;;4.47;;
21507;SDS011;10915;54.352;9.074;2024-01-16T01:58:23;11.43;;;5.03;;
21507;SDS011;10915;54.352;9.074;2024-01-16T02:00:49;7.87;;;5.23;;
21507;SDS011;10915;54.352;9.074;2024-01-16T02:03:15;8.10;;;4.50;;
21507;SDS011;10915;54.352;9.074;2024-01-16T02:05:41;13.37;;;5.30;;
21507;SDS011;10915;54.352;9.074;2024-01-16T02:08:07;11.47;;;5.00;;
21507;SDS011;10915;54.352;9.074;2024-01-16T02:10:33;12.27;;;4.83;;
21507;SDS011;10915;54.352;9.074;2024-01-16T02:13:02;9.50;;;5.33;;
21507;SDS011;10915;54.352;9.074;2024-01-16T02:15:28;12.03;;;5.30;;
21507;SDS011;10915;54.352;9.074;2024-01-16T02:17:54;14.03;;;4.53;;
21507;SDS011;10915;54.352;9.074;2024-01-16T02:20:19;10.63;;;4.33;;
21507;SDS011;10915;54.352;9.074;2024-01-16T02:22:45;9.27;;;5.07;;
21507;SDS011;10915;54.352;9.074;2024-01-16T02:25:15;10.67;;;5.20;;
21507;SDS011;10915;54.352;9.074;2024-01-16T02:27:40;11.70;;;5.10;;
21507;SDS011;10915;54.352;9.074;2024-01-16T02:30:06;10.33;;;4.63;;
21507;SDS011;10915;54.352;9.074;2024-01-16T02:32:32;16.60;;;6.33;;
21507;SDS011;10915;54.352;9.074;2024-01-16T02:34:57;10.03;;;5.20;;
21507;SDS011;10915;54.352;9.074;2024-01-16T02:37:23;11.93;;;4.83;;
21507;SDS011;10915;54.352;9.074;2024-01-16T02:39:49;9.90;;;5.23;;
21507;SDS011;10915;54.352;9.074;2024-01-16T02:42:15;11.07;;;4.17;;
21507;SDS011;10915;54.352;9.074;2024-01-16T02:44:41;10.03;;;5.17;;
21507;SDS011;10915;54.352;9.074;2024-01-16T02:47:06;11.23;;;4.70;;
21507;SDS011;10915;54.352;9.074;2024-01-16T02:49:32;13.70;;;5.67;;
21507;SDS011;10915;54.352;9.074;2024-01-16T02:51:58;10.33;;;5.40;;
21507;SDS011;10915;54.352;9.074;2024-01-16T02:54:23;12.07;;;6.47;;
21507;SDS011;10915;54.352;9.074;2024-01-16T02:56:49;13.03;;;5.93;;
21507;SDS011;10915;54.352;9.074;2024-01-16T02:59:15;10.43;;;4.97;;
21507;SDS011;10915;54.352;9.074;2024-01-16T03:01:40;8.90;;;4.77;;
21507;SDS011;10915;54.352;9.074;2024-01-16T03:04:06;7.73;;;5.27;;
21507;SDS011;10915;54.352;9.074;2024-01-16T03:06:31;11.57;;;5.00;;
21507;SDS011;10915;54.352;9.074;2024-01-16T03:08:57;7.13;;;4.37;;
21507;SDS011;10915;54.352;9.074;2024-01-16T03:11:23;9.53;;;4.63;;
21507;SDS011;10915;54.352;9.074;2024-01-16T03:13:48;10.63;;;4.67;;
21507;SDS011;10915;54.352;9.074;2024-01-16T03:16:17;10.33;;;5.37;;
21507;SDS011;10915;54.352;9.074;2024-01-16T03:18:42;13.40;;;5.60;;
21507;SDS011;10915;54.352;9.074;2024-01-16T03:21:08;13.17;;;5.30;;
21507;SDS011;10915;54.352;9.074;2024-01-16T03:23:35;10.97;;;4.73;;
21507;SDS011;10915;54.352;9.074;2024-01-16T03:26:01;8.00;;;4.27;;
21507;SDS011;10915;54.352;9.074;2024-01-16T03:28:28;9.43;;;4.67;;
21507;SDS011;10915;54.352;9.074;2024-01-16T03:30:54;11.30;;;6.00;;
21507;SDS011;10915;54.352;9.074;2024-01-16T03:33:19;9.33;;;4.60;;
21507;SDS011;10915;54.352;9.074;2024-01-16T03:35:45;9.57;;;3.73;;
21507;SDS011;10915;54.352;9.074;2024-01-16T03:38:12;11.20;;;4.97;;
21507;SDS011;10915;54.352;9.074;2024-01-16T03:40:38;10.60;;;4.83;;
21507;SDS011;10915;54.352;9.074;2024-01-16T03:43:03;11.87;;;5.60;;
21507;SDS011;10915;54.352;9.074;2024-01-16T03:45:32;11.30;;;5.63;;
21507;SDS011;10915;54.352;9.074;2024-01-16T03:47:58;8.97;;;5.07;;
21507;SDS011;10915;54.352;9.074;2024-01-16T03:50:24;20.97;;;4.83;;
21507;SDS011;10915;54.352;9.074;2024-01-16T03:52:49;11.53;;;4.90;;
21507;SDS011;10915;54.352;9.074;2024-01-16T03:55:15;8.83;;;4.60;;
21507;SDS011;10915;54.352;9.074;2024-01-16T03:57:40;11.50;;;5.43;;
21507;SDS011;10915;54.352;9.074;2024-01-16T04:00:07;10.33;;;5.57;;
21507;SDS011;10915;54.352;9.074;2024-01-16T04:02:37;13.37;;;5.57;;
21507;SDS011;10915;54.352;9.074;2024-01-16T04:05:03;9.37;;;4.80;;
21507;SDS011;10915;54.352;9.074;2024-01-16T04:07:28;10.77;;;4.53;;
21507;SDS011;10915;54.352;9.074;2024-01-16T04:09:54;12.93;;;4.77;;
21507;SDS011;10915;54.352;9.074;2024-01-16T04:12:20;7.03;;;4.13;;
21507;SDS011;10915;54.352;9.074;2024-01-16T04:14:45;13.77;;;4.67;;
21507;SDS011;10915;54.352;9.074;2024-01-16T04:17:11;9.53;;;4.20;;
21507;SDS011;10915;54.352;9.074;2024-01-16T04:19:36;9.10;;;3.97;;
21507;SDS011;10915;54.352;9.074;2024-01-16T04:22:02;11.07;;;4.73;;
21507;SDS011;10915;54.352;9.074;2024-01-16T04:24:29;10.93;;;4.40;;
21507;SDS011;10915;54.352;9.074;2024-01-16T04:26:55;11.27;;;4.70;;
21507;SDS011;10915;54.352;9.074;2024-01-16T04:29:20;7.63;;;3.63;;
21507;SDS011;10915;54.352;9.074;2024-01-16T04:31:46;10.60;;;4.70;;
21507;SDS011;10915;54.352;9.074;2024-01-16T04:34:12;13.43;;;4.60;;
21507;SDS011;10915;54.352;9.074;2024-01-16T04:36:37;16.17;;;9.13;;
21507;SDS011;10915;54.352;9.074;2024-01-16T04:39:03;9.10;;;4.00;;
21507;SDS011;10915;54.352;9.074;2024-01-16T04:41:28;9.70;;;3.60;;
21507;SDS011;10915;54.352;9.074;2024-01-16T04:43:54;8.03;;;3.80;;
21507;SDS011;10915;54.352;9.074;2024-01-16T04:46:20;11.70;;;7.47;;
21507;SDS011;10915;54.352;9.074;2024-01-16T04:48:46;12.10;;;6.77;;
21507;SDS011;10915;54.352;9.074;2024-01-16T04:51:11;13.37;;;6.53;;
21507;SDS011;10915;54.352;9.074;2024-01-16T04:53:37;15.63;;;7.17;;
21507;SDS011;10915;54.352;9.074;2024-01-16T04:56:02;11.77;;;6.90;;
21507;SDS011;10915;54.352;9.074;2024-01-16T04:58:28;11.40;;;6.70;;
21507;SDS011;10915;54.352;9.074;2024-01-16T05:00:54;13.03;;;6.03;;
21507;SDS011;10915;54.352;9.074;2024-01-16T05:03:19;12.53;;;5.30;;
21507;SDS011;10915;54.352;9.074;2024-01-16T05:05:45;7.97;;;4.10;;
21507;SDS011;10915;54.352;9.074;2024-01-16T05:08:10;10.63;;;4.03;;
21507;SDS011;10915;54.352;9.074;2024-01-16T05:10:36;9.40;;;4.00;;
21507;SDS011;10915;54.352;9.074;2024-01-16T05:13:01;8.87;;;3.70;;
21507;SDS011;10915;54.352;9.074;2024-01-16T05:15:27;6.40;;;3.20;;
21507;SDS011;10915;54.352;9.074;2024-01-16T05:17:53;10.60;;;4.23;;
21507;SDS011;10915;54.352;9.074;2024-01-16T05:20:18;9.73;;;4.47;;
21507;SDS011;10915;54.352;9.074;2024-01-16T05:22:44;11.03;;;5.80;;
21507;SDS011;10915;54.352;9.074;2024-01-16T05:25:10;12.97;;;8.03;;
21507;SDS011;10915;54.352;9.074;2024-01-16T05:27:35;15.13;;;9.13;;
21507;SDS011;10915;54.352;9.074;2024-01-16T05:30:01;17.53;;;10.17;;
21507;SDS011;10915;54.352;9.074;2024-01-16T05:32:27;15.00;;;9.20;;
21507;SDS011;10915;54.352;9.074;2024-01-16T05:34:52;17.77;;;9.00;;
21507;SDS011;10915;54.352;9.074;2024-01-16T05:37:21;18.80;;;9.03;;
21507;SDS011;10915;54.352;9.074;2024-01-16T05:39:47;16.47;;;8.67;;
21507;SDS011;10915;54.352;9.074;2024-01-16T05:42:12;15.97;;;8.50;;
21507;SDS011;10915;54.352;9.074;2024-01-16T05:44:38;17.70;;;9.40;;
21507;SDS011;10915;54.352;9.074;2024-01-16T05:47:04;18.30;;;9.27;;
21507;SDS011;10915;54.352;9.074;2024-01-16T05:49:29;16.60;;;9.53;;
21507;SDS011;10915;54.352;9.074;2024-01-16T05:51:55;17.53;;;9.97;;
21507;SDS011;10915;54.352;9.074;2024-01-16T05:54:21;17.43;;;9.90;;
21507;SDS011;10915;54.352;9.074;2024-01-16T05:56:46;19.30;;;10.13;;
21507;SDS011;10915;54.352;9.074;2024-01-16T05:59:12;13.93;;;9.57;;
21507;SDS011;10915;54.352;9.074;2024-01-16T06:01:37;17.20;;;9.10;;
21507;SDS011;10915;54.352;9.074;2024-01-16T06:04:03;16.97;;;10.47;;
21507;SDS011;10915;54.352;9.074;2024-01-16T06:06:29;17.10;;;9.80;;
21507;SDS011;10915;54.352;9.074;2024-01-16T06:08:55;17.37;;;9.87;;
21507;SDS011;10915;54.352;9.074;2024-01-16T06:11:31;21.13;;;10.50;;
21507;SDS011;10915;54.352;9.074;2024-01-16T06:13:57;18.57;;;10.67;;
21507;SDS011;10915;54.352;9.074;2024-01-16T06:16:24;15.63;;;10.50;;
21507;SDS011;10915;54.352;9.074;2024-01-16T06:18:50;18.10;;;10.90;;
21507;SDS011;10915;54.352;9.074;2024-01-16T06:21:16;20.00;;;11.80;;
21507;SDS011;10915;54.352;9.074;2024-01-16T06:23:43;17.00;;;11.10;;
21507;SDS011;10915;54.352;9.074;2024-01-16T06:26:08;22.27;;;11.80;;
21507;SDS011;10915;54.352;9.074;2024-01-16T06:28:35;16.33;;;10.77;;
21507;SDS011;10915;54.352;9.074;2024-01-16T06:31:01;16.17;;;9.73;;
21507;SDS011;10915;54.352;9.074;2024-01-16T06:33:26;17.17;;;10.70;;
21507;SDS011;10915;54.352;9.074;2024-01-16T06:35:54;15.27;;;10.13;;
21507;SDS011;10915;54.352;9.074;2024-01-16T06:38:20;18.20;;;11.60;;
21507;SDS011;10915;54.352;9.074;2024-01-16T06:40:46;21.23;;;11.33;;
21507;SDS011;10915;54.352;9.074;2024-01-16T06:43:11;20.07;;;11.20;;
21507;SDS011;10915;54.352;9.074;2024-01-16T06:45:40;21.63;;;10.97;;
21507;SDS011;10915;54.352;9.074;2024-01-16T06:48:07;18.30;;;10.73;;
21507;SDS011;10915;54.352;9.074;2024-01-16T06:50:33;17.53;;;10.17;;
21507;SDS011;10915;54.352;9.074;2024-01-16T06:52:58;11.47;;;6.43;;
21507;SDS011;10915;54.352;9.074;2024-01-16T06:55:24;7.93;;;2.57;;
21507;SDS011;10915;54.352;9.074;2024-01-16T06:57:49;4.10;;;2.20;;
21507;SDS011;10915;54.352;9.074;2024-01-16T07:00:15;6.03;;;2.50;;
21507;SDS011;10915;54.352;9.074;2024-01-16T07:02:41;5.00;;;2.00;;
21507;SDS011;10915;54.352;9.074;2024-01-16T07:05:08;5.60;;;2.37;;
21507;SDS011;10915;54.352;9.074;2024-01-16T07:07:34;5.17;;;2.37;;
21507;SDS011;10915;54.352;9.074;2024-01-16T07:10:00;6.77;;;2.70;;
21507;SDS011;10915;54.352;9.074;2024-01-16T07:12:26;6.70;;;3.53;;
21507;SDS011;10915;54.352;9.074;2024-01-16T07:14:51;11.83;;;4.50;;
21507;SDS011;10915;54.352;9.074;2024-01-16T07:17:17;15.03;;;5.80;;
21507;SDS011;10915;54.352;9.074;2024-01-16T07:19:42;12.47;;;5.67;;
21507;SDS011;10915;54.352;9.074;2024-01-16T07:22:08;13.30;;;6.50;;
21507;SDS011;10915;54.352;9.074;2024-01-16T07:24:34;14.80;;;7.10;;
21507;SDS011;10915;54.352;9.074;2024-01-16T07:27:00;18.10;;;8.53;;
21507;SDS011;10915;54.352;9.074;2024-01-16T07:29:26;19.97;;;9.87;;
21507;SDS011;10915;54.352;9.074;2024-01-16T07:31:51;18.03;;;10.70;;
21507;SDS011;10915;54.352;9.074;2024-01-16T07:34:17;18.53;;;11.23;;
21507;SDS011;10915;54.352;9.074;2024-01-16T07:36:47;18.30;;;11.20;;
21507;SDS011;10915;54.352;9.074;2024-01-16T07:39:12;20.83;;;10.90;;
21507;SDS011;10915;54.352;9.074;2024-01-16T07:41:40;18.57;;;10.80;;
21507;SDS011;10915;54.352;9.074;2024-01-16T07:44:05;21.10;;;12.00;;
21507;SDS011;10915;54.352;9.074;2024-01-16T07:46:31;21.33;;;11.57;;
21507;SDS011;10915;54.352;9.074;2024-01-16T07:48:57;20.13;;;11.83;;
21507;SDS011;10915;54.352;9.074;2024-01-16T07:51:22;22.37;;;12.67;;
21507;SDS011;10915;54.352;9.074;2024-01-16T07:53:50;20.13;;;12.30;;
21507;SDS011;10915;54.352;9.074;2024-01-16T07:56:31;22.80;;;12.30;;
21507;SDS011;10915;54.352;9.074;2024-01-16T07:58:57;24.10;;;12.13;;
21507;SDS011;10915;54.352;9.074;2024-01-16T08:01:22;19.40;;;11.73;;
21507;SDS011;10915;54.352;9.074;2024-01-16T08:03:48;20.70;;;11.37;;
21507;SDS011;10915;54.352;9.074;2024-01-16T08:06:14;18.53;;;11.63;;
21507;SDS011;10915;54.352;9.074;2024-01-16T08:08:40;24.63;;;11.70;;
21507;SDS011;10915;54.352;9.074;2024-01-16T08:11:07;20.53;;;11.40;;
21507;SDS011;10915;54.352;9.074;2024-01-16T08:13:32;18.77;;;10.80;;
21507;SDS011;10915;54.352;9.074;2024-01-16T08:15:58;21.13;;;11.23;;
21507;SDS011;10915;54.352;9.074;2024-01-16T08:18:24;18.37;;;10.97;;
21507;SDS011;10915;54.352;9.074;2024-01-16T08:20:50;21.77;;;11.43;;
21507;SDS011;10915;54.352;9.074;2024-01-16T08:23:15;19.97;;;10.47;;
21507;SDS011;10915;54.352;9.074;2024-01-16T08:25:41;19.00;;;10.27;;
21507;SDS011;10915;54.352;9.074;2024-01-16T08:28:06;18.50;;;9.93;;
21507;SDS011;10915;54.352;9.074;2024-01-16T08:30:32;19.07;;;9.50;;
21507;SDS011;10915;54.352;9.074;2024-01-16T08:32:58;15.10;;;8.93;;
21507;SDS011;10915;54.352;9.074;2024-01-16T08:35:23;15.70;;;9.17;;
21507;SDS011;10915;54.352;9.074;2024-01-16T08:37:49;18.80;;;9.23;;
21507;SDS011;10915;54.352;9.074;2024-01-16T08:40:15;13.70;;;8.63;;
21507;SDS011;10915;54.352;9.074;2024-01-16T08:42:40;13.77;;;7.63;;
21507;SDS011;10915;54.352;9.074;2024-01-16T08:45:06;11.70;;;7.30;;
21507;SDS011;10915;54.352;9.074;2024-01-16T08:47:32;13.13;;;6.90;;
21507;SDS011;10915;54.352;9.074;2024-01-16T08:49:57;14.50;;;8.10;;
21507;SDS011;10915;54.352;9.074;2024-01-16T08:52:23;12.37;;;7.80;;
21507;SDS011;10915;54.352;9.074;2024-01-16T08:54:49;11.17;;;6.97;;
21507;SDS011;10915;54.352;9.074;2024-01-16T08:57:14;10.83;;;7.33;;
21507;SDS011;10915;54.352;9.074;2024-01-16T08:59:41;11.17;;;7.10;;
21507;SDS011;10915;54.352;9.074;2024-01-16T09:02:06;12.30;;;7.60;;
21507;SDS011;10915;54.352;9.074;2024-01-16T09:04:32;14.20;;;7.23;;
21507;SDS011;10915;54.352;9.074;2024-01-16T09:06:59;11.33;;;6.73;;
21507;SDS011;10915;54.352;9.074;2024-01-16T09:09:24;8.27;;;5.10;;
21507;SDS011;10915;54.352;9.074;2024-01-16T09:11:50;12.50;;;8.00;;
21507;SDS011;10915;54.352;9.074;2024-01-16T09:14:16;28.17;;;25.07;;
21507;SDS011;10915;54.352;9.074;2024-01-16T09:16:41;69.53;;;62.57;;
21507;SDS011;10915;54.352;9.074;2024-01-16T09:19:07;39.80;;;32.83;;
21507;SDS011;10915;54.352;9.074;2024-01-16T09:21:34;17.70;;;14.53;;
21507;SDS011;10915;54.352;9.074;2024-01-16T09:24:00;11.13;;;5.80;;
21507;SDS011;10915;54.352;9.074;2024-01-16T09:26:25;10.63;;;6.63;;
21507;SDS011;10915;54.352;9.074;2024-01-16T09:28:51;7.50;;;5.70;;
21507;SDS011;10915;54.352;9.074;2024-01-16T09:31:17;8.10;;;4.50;;
21507;SDS011;10915;54.352;9.074;2024-01-16T09:33:42;7.37;;;3.70;;
21507;SDS011;10915;54.352;9.074;2024-01-16T09:36:08;7.23;;;3.10;;
21507;SDS011;10915;54.352;9.074;2024-01-16T09:38:34;6.77;;;2.60;;
21507;SDS011;10915;54.352;9.074;2024-01-16T09:41:00;7.53;;;3.20;;
21507;SDS011;10915;54.352;9.074;2024-01-16T09:43:28;5.57;;;2.90;;
21507;SDS011;10915;54.352;9.074;2024-01-16T09:45:55;5.80;;;2.70;;
21507;SDS011;10915;54.352;9.074;2024-01-16T09:48:21;5.83;;;2.23;;
21507;SDS011;10915;54.352;9.074;2024-01-16T09:50:47;5.27;;;2.57;;
21507;SDS011;10915;54.352;9.074;2024-01-16T09:53:13;7.13;;;3.63;;
21507;SDS011;10915;54.352;9.074;2024-01-16T09:55:38;7.57;;;3.20;;
21507;SDS011;10915;54.352;9.074;2024-01-16T09:58:05;5.43;;;2.77;;
21507;SDS011;10915;54.352;9.074;2024-01-16T10:00:33;6.17;;;2.43;;
21507;SDS011;10915;54.352;9.074;2024-01-16T10:03:00;4.27;;;2.33;;
21507;SDS011;10915;54.352;9.074;2024-01-16T10:05:27;5.20;;;2.37;;
21507;SDS011;10915;54.352;9.074;2024-01-16T10:07:55;7.83;;;2.70;;
21507;SDS011;10915;54.352;9.074;2024-01-16T10:10:22;5.30;;;2.07;;
21507;SDS011;10915;54.352;9.074;2024-01-16T10:12:47;5.73;;;2.20;;
21507;SDS011;10915;54.352;9.074;2024-01-16T10:15:15;4.63;;;1.50;;
21507;SDS011;10915;54.352;9.074;2024-01-16T10:17:42;4.77;;;2.40;;
21507;SDS011;10915;54.352;9.074;2024-01-16T10:20:11;3.40;;;1.77;;
21507;SDS011;10915;54.352;9.074;2024-01-16T10:22:51;4.03;;;1.90;;
21507;SDS011;10915;54.352;9.074;2024-01-16T10:25:18;2.53;;;1.13;;
21507;SDS011;10915;54.352;9.074;2024-01-16T10:27:46;3.23;;;1.80;;
21507;SDS011;10915;54.352;9.074;2024-01-16T10:30:12;3.83;;;2.20;;
21507;SDS011;10915;54.352;9.074;2024-01-16T10:32:41;4.77;;;1.50;;
21507;SDS011;10915;54.352;9.074;2024-01-16T10:35:09;1.40;;;1.20;;
21507;SDS011;10915;54.352;9.074;2024-01-16T10:37:41;3.30;;;1.47;;
21507;SDS011;10915;54.352;9.074;2024-01-16T10:40:18;3.77;;;1.40;;
21507;SDS011;10915;54.352;9.074;2024-01-16T10:42:46;4.20;;;1.43;;
21507;SDS011;10915;54.352;9.074;2024-01-16T10:45:22;5.13;;;1.40;;
21507;SDS011;10915;54.352;9.074;2024-01-16T10:47:49;2.87;;;1.33;;
21507;SDS011;10915;54.352;9.074;2024-01-16T10:50:28;3.17;;;1.50;;
21507;SDS011;10915;54.352;9.074;2024-01-16T10:52:54;3.33;;;1.67;;
21507;SDS011;10915;54.352;9.074;2024-01-16T10:55:23;4.30;;;1.57;;
21507;SDS011;10915;54.352;9.074;2024-01-16T10:57:49;3.87;;;1.57;;
21507;SDS011;10915;54.352;9.074;2024-01-16T11:00:19;3.90;;;2.10;;
21507;SDS011;10915;54.352;9.074;2024-01-16T11:02:54;7.23;;;4.50;;
21507;SDS011;10915;54.352;9.074;2024-01-16T11:05:28;4.13;;;2.00;;
21507;SDS011;10915;54.352;9.074;2024-01-16T11:07:56;4.67;;;1.70;;
21507;SDS011;10915;54.352;9.074;2024-01-16T11:10:26;5.20;;;1.93;;
21507;SDS011;10915;54.352;9.074;2024-01-16T11:12:52;5.97;;;1.70;;
21507;SDS011;10915;54.352;9.074;2024-01-16T11:15:18;4.60;;;1.93;;
21507;SDS011;10915;54.352;9.074;2024-01-16T11:17:44;4.87;;;1.90;;
21507;SDS011;10915;54.352;9.074;2024-01-16T11:20:12;4.13;;;1.77;;
21507;SDS011;10915;54.352;9.074;2024-01-16T11:22:40;3.97;;;1.97;;
21507;SDS011;10915;54.352;9.074;2024-01-16T11:25:08;3.93;;;1.70;;
21507;SDS011;10915;54.352;9.074;2024-01-16T11:27:41;4.63;;;2.37;;
21507;SDS011;10915;54.352;9.074;2024-01-16T11:30:08;5.23;;;2.13;;
21507;SDS011;10915;54.352;9.074;2024-01-16T11:32:42;4.93;;;2.03;;
21507;SDS011;10915;54.352;9.074;2024-01-16T11:35:10;2.97;;;2.10;;
21507;SDS011;10915;54.352;9.074;2024-01-16T11:37:39;2.43;;;1.60;;
21507;SDS011;10915;54.352;9.074;2024-01-16T11:42:43;6.20;;;2.70;;
21507;SDS011;10915;54.352;9.074;2024-01-16T11:50:49;7.80;;;2.30;;
21507;SDS011;10915;54.352;9.074;2024-01-16T11:56:16;4.30;;;1.93;;
21507;SDS011;10915;54.352;9.074;2024-01-16T11:59:19;5.50;;;2.50;;
21507;SDS011;10915;54.352;9.074;2024-01-16T12:01:52;3.97;;;1.93;;
21507;SDS011;10915;54.352;9.074;2024-01-16T12:04:22;4.13;;;1.97;;
21507;SDS011;10915;54.352;9.074;2024-01-16T12:06:57;4.13;;;1.93;;
21507;SDS011;10915;54.352;9.074;2024-01-16T12:09:25;5.00;;;1.93;;
21507;SDS011;10915;54.352;9.074;2024-01-16T12:12:01;4.87;;;1.87;;
21507;SDS011;10915;54.352;9.074;2024-01-16T12:14:28;3.80;;;1.97;;
21507;SDS011;10915;54.352;9.074;2024-01-16T12:17:12;6.53;;;2.17;;
21507;SDS011;10915;54.352;9.074;2024-01-16T12:19:38;5.90;;;2.20;;
21507;SDS011;10915;54.352;9.074;2024-01-16T12:22:09;3.63;;;2.03;;
21507;SDS011;10915;54.352;9.074;2024-01-16T12:24:38;6.80;;;2.80;;
21507;SDS011;10915;54.352;9.074;2024-01-16T12:27:04;4.33;;;2.20;;
21507;SDS011;10915;54.352;9.074;2024-01-16T12:29:30;4.30;;;2.30;;
21507;SDS011;10915;54.352;9.074;2024-01-16T12:32:09;5.17;;;2.60;;
21507;SDS011;10915;54.352;9.074;2024-01-16T12:34:42;4.03;;;1.93;;
21507;SDS011;10915;54.352;9.074;2024-01-16T12:37:10;4.50;;;2.20;;
21507;SDS011;10915;54.352;9.074;2024-01-16T12:39:37;4.97;;;2.20;;
21507;SDS011;10915;54.352;9.074;2024-01-16T12:42:04;4.07;;;2.07;;
21507;SDS011;10915;54.352;9.074;2024-01-16T12:44:30;5.23;;;2.30;;
21507;SDS011;10915;54.352;9.074;2024-01-16T12:46:56;4.70;;;2.13;;
21507;SDS011;10915;54.352;9.074;2024-01-16T12:49:22;3.20;;;1.80;;
21507;SDS011;10915;54.352;9.074;2024-01-16T12:51:48;6.10;;;2.50;;
21507;SDS011;10915;54.352;9.074;2024-01-16T12:54:16;4.37;;;1.80;;
21507;SDS011;10915;54.352;9.074;2024-01-16T12:56:43;4.33;;;2.23;;
21507;SDS011;10915;54.352;9.074;2024-01-16T12:59:12;4.97;;;2.23;;
21507;SDS011;10915;54.352;9.074;2024-01-16T13:01:39;13.43;;;8.20;;
21507;SDS011;10915;54.352;9.074;2024-01-16T13:04:09;25.77;;;17.40;;
21507;SDS011;10915;54.352;9.074;2024-01-16T13:06:35;12.07;;;8.07;;
21507;SDS011;10915;54.352;9.074;2024-01-16T13:09:08;7.07;;;4.23;;
21507;SDS011;10915;54.352;9.074;2024-01-16T13:14:17;11.93;;;5.90;;
21507;SDS011;10915;54.352;9.074;2024-01-16T13:16:48;9.63;;;5.50;;
21507;SDS011;10915;54.352;9.074;2024-01-16T13:19:16;8.07;;;4.77;;
21507;SDS011;10915;54.352;9.074;2024-01-16T13:21:42;9.17;;;6.30;;
21507;SDS011;10915;54.352;9.074;2024-01-16T13:24:08;7.73;;;4.63;;
21507;SDS011;10915;54.352;9.074;2024-01-16T13:26:33;7.10;;;3.80;;
21507;SDS011;10915;54.352;9.074;2024-01-16T13:29:00;10.80;;;3.37;;
21507;SDS011;10915;54.352;9.074;2024-01-16T13:31:26;5.63;;;3.17;;
21507;SDS011;10915;54.352;9.074;2024-01-16T13:33:52;7.50;;;3.73;;
21507;SDS011;10915;54.352;9.074;2024-01-16T13:36:17;9.93;;;4.63;;
21507;SDS011;10915;54.352;9.074;2024-01-16T13:38:43;7.43;;;4.60;;
21507;SDS011;10915;54.352;9.074;2024-01-16T13:41:09;7.93;;;3.17;;
21507;SDS011;10915;54.352;9.074;2024-01-16T13:43:36;4.37;;;2.20;;
21507;SDS011;10915;54.352;9.074;2024-01-16T13:46:03;4.03;;;2.10;;
21507;SDS011;10915;54.352;9.074;2024-01-16T13:48:28;4.67;;;1.93;;
21507;SDS011;10915;54.352;9.074;2024-01-16T13:50:54;3.80;;;2.17;;
21507;SDS011;10915;54.352;9.074;2024-01-16T13:53:20;11.57;;;6.37;;
21507;SDS011;10915;54.352;9.074;2024-01-16T13:55:46;16.33;;;10.27;;
21507;SDS011;10915;54.352;9.074;2024-01-16T13:58:11;19.03;;;11.43;;
21507;SDS011;10915;54.352;9.074;2024-01-16T14:00:49;6.60;;;2.50;;
21507;SDS011;10915;54.352;9.074;2024-01-16T14:03:16;4.70;;;3.20;;
21507;SDS011;10915;54.352;9.074;2024-01-16T14:05:42;6.13;;;3.07;;
21507;SDS011;10915;54.352;9.074;2024-01-16T14:08:08;5.00;;;2.60;;
21507;SDS011;10915;54.352;9.074;2024-01-16T14:10:37;3.33;;;2.33;;
21507;SDS011;10915;54.352;9.074;2024-01-16T14:13:03;3.57;;;1.53;;
21507;SDS011;10915;54.352;9.074;2024-01-16T14:15:41;5.57;;;1.83;;
21507;SDS011;10915;54.352;9.074;2024-01-16T14:18:07;2.70;;;1.27;;
21507;SDS011;10915;54.352;9.074;2024-01-16T14:20:41;2.93;;;1.10;;
21507;SDS011;10915;54.352;9.074;2024-01-16T14:23:09;3.00;;;1.13;;
21507;SDS011;10915;54.352;9.074;2024-01-16T14:25:56;3.17;;;1.20;;
21507;SDS011;10915;54.352;9.074;2024-01-16T14:28:27;4.60;;;1.10;;
21507;SDS011;10915;54.352;9.074;2024-01-16T14:30:56;4.10;;;0.70;;
21507;SDS011;10915;54.352;9.074;2024-01-16T14:33:25;1.63;;;0.73;;
21507;SDS011;10915;54.352;9.074;2024-01-16T14:35:50;0.73;;;0.53;;
21507;SDS011;10915;54.352;9.074;2024-01-16T14:38:26;2.73;;;0.87;;
21507;SDS011;10915;54.352;9.074;2024-01-16T14:41:14;1.07;;;0.50;;
21507;SDS011;10915;54.352;9.074;2024-01-16T14:43:42;4.53;;;0.50;;
21507;SDS011;10915;54.352;9.074;2024-01-16T14:46:22;2.97;;;0.67;;
21507;SDS011;10915;54.352;9.074;2024-01-16T14:49:12;3.30;;;0.77;;
21507;SDS011;10915;54.352;9.074;2024-01-16T14:52:02;2.40;;;0.67;;
21507;SDS011;10915;54.352;9.074;2024-01-16T14:54:39;1.03;;;0.50;;
21507;SDS011;10915;54.352;9.074;2024-01-16T14:57:07;1.67;;;0.40;;
21507;SDS011;10915;54.352;9.074;2024-01-16T14:59:35;3.23;;;0.50;;